Time;durP1;ratioP1;P1;durP2;ratioP2;P2;SDS_P1;SDS_P2;PMS_P1;PMS_P2;Temp;Humidity;BMP_temperature;BMP_pressure;BME280_temperature;BME280_humidity;BME280_pressure;Samples;Min_cycle;Max_cycle;Signal;HPM_P1;HPM_P2
2022/01/25 00:08:54;;;;;;;39.87;22.60;;;4.30;99.90;;;;;;5008874;28;20221;-83
2022/01/25 00:25:11;;;;;;;45.27;24.37;;;4.30;99.90;;;;;;5007863;28;20234;-80
2022/01/25 00:27:43;;;;;;;42.50;25.00;;;4.20;99.90;;;;;;5015245;28;20233;-82
2022/01/25 00:33:03;;;;;;;41.43;23.77;;;4.20;99.90;;;;;;4955040;28;20597;-82
2022/01/25 00:35:29;;;;;;;43.57;24.77;;;4.20;99.90;;;;;;5001243;28;20331;-81
2022/01/25 00:37:57;;;;;;;43.57;24.67;;;4.20;99.90;;;;;;5012343;28;20285;-81
2022/01/25 00:40:24;;;;;;;43.17;25.07;;;4.20;99.90;;;;;;5012739;28;20237;-82
2022/01/25 00:42:51;;;;;;;44.13;25.70;;;4.20;99.90;;;;;;5018971;28;20236;-84
2022/01/25 00:45:20;;;;;;;45.43;25.30;;;4.20;99.90;;;;;;5010135;28;20305;-83
2022/01/25 00:47:49;;;;;;;48.27;25.93;;;4.20;99.90;;;;;;5026419;28;20233;-82
2022/01/25 00:50:16;;;;;;;47.77;25.07;;;4.20;99.90;;;;;;5012125;28;20222;-83
2022/01/25 00:55:31;;;;;;;48.13;27.07;;;4.20;99.90;;;;;;4989838;28;20687;-80
2022/01/25 00:57:58;;;;;;;49.27;25.57;;;4.20;99.90;;;;;;4990958;28;20237;-80
2022/01/25 01:00:25;;;;;;;48.37;26.97;;;4.20;99.90;;;;;;4998666;28;20271;-81
2022/01/25 01:02:52;;;;;;;47.23;25.90;;;4.20;99.90;;;;;;5008314;28;20233;-85
2022/01/25 01:05:19;;;;;;;49.10;26.63;;;4.20;99.90;;;;;;5009412;28;20597;-82
2022/01/25 01:07:46;;;;;;;48.90;28.53;;;4.20;99.90;;;;;;5010741;28;20300;-83
2022/01/25 01:10:17;;;;;;;50.37;27.00;;;4.20;99.90;;;;;;5004995;28;20337;-82
2022/01/25 01:15:35;;;;;;;54.90;28.83;;;4.20;99.90;;;;;;5010427;28;20244;-80
2022/01/25 01:29:16;;;;;;;55.57;29.83;;;4.20;99.90;;;;;;4992452;28;20623;-81
2022/01/25 01:31:57;;;;;;;58.87;31.13;;;4.20;99.90;;;;;;4994042;28;20336;-82
2022/01/25 01:34:47;;;;;;;60.17;31.10;;;4.10;99.90;;;;;;5006291;28;20244;-82
2022/01/25 01:40:23;;;;;;;56.60;28.30;;;4.20;99.90;;;;;;5012750;28;20337;-81
2022/01/25 01:43:04;;;;;;;57.57;31.40;;;4.10;99.90;;;;;;5006076;28;20252;-81
2022/01/25 01:45:46;;;;;;;63.17;33.00;;;4.10;99.90;;;;;;5010274;28;20221;-80
2022/01/25 01:48:26;;;;;;;64.27;31.87;;;4.10;99.90;;;;;;5010398;28;20243;-81
2022/01/25 01:50:53;;;;;;;65.27;32.00;;;4.10;99.90;;;;;;5012676;28;20237;-81
2022/01/25 01:53:20;;;;;;;61.80;32.57;;;4.10;99.90;;;;;;5009177;28;20245;-82
2022/01/25 01:55:47;;;;;;;63.30;32.40;;;4.10;99.90;;;;;;5012752;28;20707;-82
2022/01/25 01:58:15;;;;;;;61.13;31.93;;;4.10;99.90;;;;;;5011236;28;20612;-81
2022/01/25 02:00:47;;;;;;;62.87;31.87;;;4.10;99.90;;;;;;5014733;28;20666;-82
2022/01/25 02:03:14;;;;;;;58.20;31.17;;;4.10;99.90;;;;;;5005633;28;20320;-83
2022/01/25 02:05:42;;;;;;;68.73;34.43;;;4.10;99.90;;;;;;5013299;28;20291;-83
2022/01/25 02:08:09;;;;;;;61.00;31.53;;;4.10;99.90;;;;;;5010344;28;20244;-82
2022/01/25 02:10:36;;;;;;;65.23;33.37;;;4.10;99.90;;;;;;5013727;28;20260;-84
2022/01/25 02:13:06;;;;;;;63.90;32.43;;;4.10;99.90;;;;;;5013346;28;20870;-81
2022/01/25 02:15:33;;;;;;;66.00;33.73;;;4.10;99.90;;;;;;5012706;28;20319;-81
2022/01/25 02:23:28;;;;;;;62.20;33.87;;;4.20;99.90;;;;;;5009725;28;20237;-86
2022/01/25 02:25:56;;;;;;;62.97;32.23;;;4.00;99.90;;;;;;5012948;28;20271;-82
2022/01/25 02:28:25;;;;;;;73.27;34.47;;;4.20;99.90;;;;;;5010264;28;20241;-81
2022/01/25 02:30:52;;;;;;;66.50;34.23;;;4.10;99.90;;;;;;5011857;28;20229;-81
2022/01/25 02:33:20;;;;;;;65.40;33.53;;;4.10;99.90;;;;;;5012760;28;20256;-81
2022/01/25 02:35:48;;;;;;;67.13;33.00;;;4.10;99.90;;;;;;5013821;28;20229;-81
2022/01/25 02:38:20;;;;;;;72.83;36.27;;;4.20;99.90;;;;;;5012970;28;20233;-81
2022/01/25 02:40:47;;;;;;;66.10;34.50;;;4.20;99.90;;;;;;5013680;28;20236;-82
2022/01/25 02:43:16;;;;;;;69.27;35.10;;;4.10;99.90;;;;;;5010450;28;20420;-81
2022/01/25 02:45:46;;;;;;;67.80;33.83;;;4.10;99.90;;;;;;5013352;28;20265;-81
2022/01/25 02:48:30;;;;;;;69.27;34.27;;;4.20;99.90;;;;;;5012013;28;20233;-81
2022/01/25 02:51:01;;;;;;;68.83;34.47;;;4.20;99.90;;;;;;5008956;28;20248;-81
2022/01/25 02:53:29;;;;;;;68.97;35.17;;;4.20;99.90;;;;;;5009451;28;20232;-81
2022/01/25 02:55:56;;;;;;;74.20;36.23;;;4.20;99.90;;;;;;5013512;28;20241;-81
2022/01/25 02:58:23;;;;;;;68.47;33.43;;;4.20;99.90;;;;;;5013766;28;20240;-83
2022/01/25 03:00:50;;;;;;;66.20;33.60;;;4.20;99.90;;;;;;5012803;28;20299;-82
2022/01/25 03:03:17;;;;;;;71.07;34.57;;;4.20;99.90;;;;;;5011450;28;20238;-81
2022/01/25 03:05:45;;;;;;;69.03;34.57;;;4.20;99.90;;;;;;5013947;28;20303;-81
2022/01/25 03:08:14;;;;;;;69.97;34.97;;;4.20;99.90;;;;;;5012491;28;20772;-83
2022/01/25 03:10:43;;;;;;;72.80;35.03;;;4.20;99.90;;;;;;5011727;28;20819;-83
2022/01/25 03:13:18;;;;;;;71.00;34.50;;;4.20;99.90;;;;;;5010505;28;20747;-82
2022/01/25 03:15:57;;;;;;;75.20;36.87;;;4.20;99.90;;;;;;5013215;28;20324;-83
2022/01/25 03:18:38;;;;;;;75.27;36.23;;;4.20;99.90;;;;;;5010972;28;20260;-83
2022/01/25 03:23:55;;;;;;;71.43;35.57;;;4.20;99.90;;;;;;5015938;28;20229;-82
2022/01/25 03:26:23;;;;;;;67.10;33.60;;;4.10;99.90;;;;;;5014584;28;20233;-84
2022/01/25 03:28:51;;;;;;;78.40;36.63;;;4.20;99.90;;;;;;5010679;28;20233;-82
2022/01/25 03:31:18;;;;;;;73.77;35.57;;;4.10;99.90;;;;;;5012872;28;20232;-83
2022/01/25 03:33:46;;;;;;;68.50;35.07;;;4.10;99.90;;;;;;5013351;28;20259;-81
2022/01/25 03:36:14;;;;;;;71.67;34.03;;;4.10;99.90;;;;;;5014298;28;20304;-81
2022/01/25 03:38:42;;;;;;;72.13;35.63;;;4.10;99.90;;;;;;5014459;28;20237;-82
2022/01/25 03:41:13;;;;;;;68.70;35.10;;;4.10;99.90;;;;;;5014407;28;20232;-82
2022/01/25 03:43:40;;;;;;;70.27;34.37;;;4.00;99.90;;;;;;5014016;28;20241;-83
2022/01/25 03:46:13;;;;;;;73.13;35.80;;;4.00;99.90;;;;;;5017568;28;20259;-82
2022/01/25 03:51:24;;;;;;;75.53;36.70;;;4.00;99.90;;;;;;5016438;28;20221;-82
2022/01/25 03:53:53;;;;;;;72.07;34.93;;;4.00;99.90;;;;;;5014487;28;20668;-84
2022/01/25 03:56:21;;;;;;;77.73;36.33;;;4.00;99.90;;;;;;5016030;28;20240;-82
2022/01/25 03:58:48;;;;;;;69.67;34.70;;;4.00;99.90;;;;;;5018014;28;20244;-82
2022/01/25 04:01:15;;;;;;;67.20;35.00;;;4.00;99.90;;;;;;5014994;28;20265;-82
2022/01/25 04:03:48;;;;;;;69.20;34.87;;;4.00;99.90;;;;;;5014690;28;20287;-82
2022/01/25 04:06:19;;;;;;;77.07;35.17;;;4.00;99.90;;;;;;5016716;28;20320;-81
2022/01/25 04:08:45;;;;;;;78.70;37.00;;;4.00;99.90;;;;;;5012697;28;20328;-81
2022/01/25 04:11:12;;;;;;;71.10;34.97;;;4.00;99.90;;;;;;5013763;28;20240;-82
2022/01/25 04:13:40;;;;;;;76.13;36.50;;;4.00;99.90;;;;;;5014120;28;20297;-84
2022/01/25 04:16:12;;;;;;;74.07;37.17;;;4.00;99.90;;;;;;5013941;28;20706;-82
2022/01/25 04:18:53;;;;;;;75.23;36.23;;;4.00;99.90;;;;;;5014750;28;20320;-83
2022/01/25 04:21:46;;;;;;;73.63;35.50;;;4.00;99.90;;;;;;5014912;28;20231;-83
2022/01/25 04:26:58;;;;;;;69.53;36.00;;;4.00;99.90;;;;;;5013050;28;20312;-81
2022/01/25 04:29:27;;;;;;;69.20;35.17;;;4.00;99.90;;;;;;5009921;28;20233;-81
2022/01/25 04:31:55;;;;;;;71.67;35.43;;;4.00;99.90;;;;;;5012902;28;20233;-81
2022/01/25 04:34:41;;;;;;;73.47;35.37;;;4.00;99.90;;;;;;5013498;28;20240;-81
2022/01/25 04:51:13;;;;;;;76.37;36.93;;;4.10;99.90;;;;;;5013811;28;20240;-81
2022/01/25 04:53:49;;;;;;;77.67;35.33;;;4.10;99.90;;;;;;5016918;28;20228;-81
2022/01/25 04:56:22;;;;;;;73.03;35.67;;;4.10;99.90;;;;;;5018180;28;20290;-82
2022/01/25 04:58:55;;;;;;;75.00;34.90;;;4.10;99.90;;;;;;5012070;28;20240;-81
2022/01/25 05:01:23;;;;;;;80.07;36.47;;;4.10;99.90;;;;;;5012946;28;20217;-81
2022/01/25 05:06:34;;;;;;;72.73;36.37;;;4.10;99.90;;;;;;5013639;28;20229;-82
2022/01/25 05:09:09;;;;;;;76.57;34.57;;;4.00;99.90;;;;;;5011920;28;20279;-83
2022/01/25 05:11:40;;;;;;;75.80;37.23;;;4.00;99.90;;;;;;5012157;28;20351;-83
2022/01/25 05:14:16;;;;;;;72.17;34.87;;;4.10;99.90;;;;;;5001270;28;20226;-81
2022/01/25 05:16:50;;;;;;;79.63;36.53;;;4.10;99.90;;;;;;5011403;28;20232;-83
2022/01/25 05:19:27;;;;;;;68.70;34.57;;;4.00;99.90;;;;;;5005835;28;20244;-82
2022/01/25 05:22:04;;;;;;;77.80;36.47;;;4.00;99.90;;;;;;5022569;28;20229;-83
2022/01/25 05:24:32;;;;;;;77.03;36.70;;;4.10;99.90;;;;;;5006990;28;21267;-83
2022/01/25 05:26:58;;;;;;;169.87;41.20;;;4.00;99.90;;;;;;5007571;28;20259;-82
2022/01/25 05:29:25;;;;;;;75.73;34.63;;;4.00;99.90;;;;;;5000771;28;20243;-83
2022/01/25 05:31:54;;;;;;;77.50;36.83;;;4.00;99.90;;;;;;5005612;28;20236;-84
2022/01/25 05:34:20;;;;;;;90.73;35.97;;;4.00;99.90;;;;;;5000930;28;20240;-81
2022/01/25 05:36:47;;;;;;;76.57;35.77;;;4.00;99.90;;;;;;5001357;28;20284;-82
2022/01/25 05:39:18;;;;;;;74.83;35.87;;;4.00;99.90;;;;;;4999661;28;20233;-82
2022/01/25 05:41:53;;;;;;;81.90;37.33;;;4.00;99.90;;;;;;5007371;28;20261;-82
2022/01/25 05:44:27;;;;;;;78.80;36.70;;;4.00;99.90;;;;;;4997433;28;20232;-82
2022/01/25 05:47:06;;;;;;;79.37;36.70;;;4.00;99.90;;;;;;5008189;28;20314;-82
2022/01/25 05:49:34;;;;;;;73.60;37.17;;;4.00;99.90;;;;;;5001671;28;20763;-83
2022/01/25 05:52:01;;;;;;;82.10;37.17;;;4.00;99.90;;;;;;5004343;28;20229;-82
2022/01/25 05:54:28;;;;;;;75.50;35.87;;;4.00;99.90;;;;;;5000567;28;20240;-82
2022/01/25 05:56:55;;;;;;;77.33;38.33;;;4.00;99.90;;;;;;5002374;28;20245;-83
2022/01/25 05:59:21;;;;;;;77.30;35.43;;;4.00;99.90;;;;;;5003116;28;20222;-82
2022/01/25 06:01:49;;;;;;;77.83;36.27;;;4.00;99.90;;;;;;5002827;28;20233;-82
2022/01/25 06:04:17;;;;;;;75.17;36.37;;;4.00;99.90;;;;;;4999073;28;20225;-82
2022/01/25 06:06:44;;;;;;;76.37;36.60;;;4.00;99.90;;;;;;5009880;28;20241;-82
2022/01/25 06:09:11;;;;;;;76.20;35.97;;;4.00;99.90;;;;;;5002479;28;20226;-82
2022/01/25 06:11:37;;;;;;;76.97;35.97;;;4.00;99.90;;;;;;4998748;28;20333;-82
2022/01/25 06:14:05;;;;;;;75.60;36.93;;;4.00;99.90;;;;;;5003719;28;20221;-82
2022/01/25 06:16:31;;;;;;;74.87;36.57;;;4.00;99.90;;;;;;5010165;28;20308;-84
2022/01/25 06:18:58;;;;;;;74.93;35.37;;;4.00;99.90;;;;;;5012977;28;20596;-82
2022/01/25 06:21:27;;;;;;;74.17;36.57;;;4.00;99.90;;;;;;5008019;28;20235;-83
2022/01/25 06:23:53;;;;;;;75.73;35.53;;;4.00;99.90;;;;;;5005588;28;20224;-83
2022/01/25 06:26:21;;;;;;;79.13;36.37;;;4.00;99.90;;;;;;5009072;28;20227;-81
2022/01/25 06:28:48;;;;;;;76.67;37.30;;;4.00;99.90;;;;;;5007369;28;20321;-82
2022/01/25 06:31:17;;;;;;;65.53;34.67;;;4.10;99.90;;;;;;5006416;28;20877;-83
2022/01/25 06:33:44;;;;;;;81.23;36.83;;;4.10;99.90;;;;;;5009031;28;20596;-82
2022/01/25 06:36:11;;;;;;;73.03;35.60;;;4.10;99.90;;;;;;5010092;28;20231;-84
2022/01/25 06:38:40;;;;;;;72.67;34.00;;;4.10;99.90;;;;;;5005352;28;20253;-82
2022/01/25 06:41:09;;;;;;;76.43;35.87;;;4.10;99.90;;;;;;5005954;28;20233;-83
2022/01/25 06:43:37;;;;;;;70.67;33.63;;;4.10;99.90;;;;;;5015212;28;20757;-82
2022/01/25 06:46:04;;;;;;;68.33;34.23;;;4.10;99.90;;;;;;5006264;28;20563;-81
2022/01/25 06:48:31;;;;;;;73.50;34.93;;;4.20;99.90;;;;;;5008356;28;20908;-82
2022/01/25 06:50:58;;;;;;;69.30;34.83;;;4.10;99.90;;;;;;5002155;28;20217;-82
2022/01/25 06:53:25;;;;;;;70.77;36.40;;;4.10;99.90;;;;;;5010332;28;20276;-84
2022/01/25 06:55:54;;;;;;;71.07;35.27;;;4.20;99.90;;;;;;5020843;28;20233;-81
2022/01/25 06:58:20;;;;;;;71.37;33.47;;;4.10;99.90;;;;;;5009376;28;20243;-82
2022/01/25 07:00:47;;;;;;;71.47;34.33;;;4.10;99.90;;;;;;5007238;28;20419;-81
2022/01/25 07:03:14;;;;;;;68.90;34.80;;;4.10;99.90;;;;;;5007844;28;20236;-83
2022/01/25 07:05:41;;;;;;;69.77;33.97;;;4.10;99.90;;;;;;5007109;28;20333;-82
2022/01/25 07:08:08;;;;;;;73.93;35.10;;;4.10;99.90;;;;;;5008500;28;20236;-81
2022/01/25 07:10:34;;;;;;;66.80;35.37;;;4.10;99.90;;;;;;5004598;28;20342;-82
2022/01/25 07:13:02;;;;;;;65.73;33.97;;;4.10;99.90;;;;;;5009111;28;20600;-81
2022/01/25 07:15:29;;;;;;;67.80;34.67;;;4.10;99.90;;;;;;5012745;28;20241;-81
2022/01/25 07:17:57;;;;;;;68.00;33.27;;;4.10;99.90;;;;;;5009394;28;20311;-81
2022/01/25 07:20:24;;;;;;;71.87;35.20;;;4.10;99.90;;;;;;5017245;28;20359;-82
2022/01/25 07:22:52;;;;;;;66.80;33.40;;;4.10;99.90;;;;;;5009518;28;20256;-82
2022/01/25 07:25:19;;;;;;;68.00;33.63;;;4.10;99.90;;;;;;5008265;28;20585;-82
2022/01/25 07:27:46;;;;;;;66.33;33.90;;;4.10;99.90;;;;;;5012564;28;20237;-81
2022/01/25 07:30:14;;;;;;;71.47;35.53;;;4.10;99.90;;;;;;5012923;28;20232;-82
2022/01/25 07:32:41;;;;;;;71.77;35.97;;;4.10;99.90;;;;;;5011088;28;20243;-82
2022/01/25 07:35:09;;;;;;;69.47;34.07;;;4.20;99.90;;;;;;5009977;28;20299;-82
2022/01/25 07:37:35;;;;;;;69.80;33.30;;;4.10;99.90;;;;;;5018670;28;20241;-81
2022/01/25 07:40:03;;;;;;;68.77;34.67;;;4.10;99.90;;;;;;5012214;28;20264;-84
2022/01/25 07:42:33;;;;;;;69.93;32.53;;;4.10;99.90;;;;;;5012547;28;20329;-82
2022/01/25 07:45:00;;;;;;;64.77;33.63;;;4.10;99.90;;;;;;5021172;28;20221;-81
2022/01/25 07:47:28;;;;;;;69.07;33.80;;;4.10;99.90;;;;;;5009332;28;20251;-81
2022/01/25 07:49:55;;;;;;;66.67;32.67;;;4.20;99.90;;;;;;5005889;28;20744;-81
2022/01/25 07:52:21;;;;;;;66.20;32.67;;;4.20;99.90;;;;;;5006882;28;20235;-82
2022/01/25 07:54:48;;;;;;;65.13;34.87;;;4.20;99.90;;;;;;5007001;28;20237;-81
2022/01/25 07:57:15;;;;;;;65.20;32.63;;;4.20;99.90;;;;;;5009615;28;20261;-82
2022/01/25 07:59:41;;;;;;;67.13;33.10;;;4.20;99.90;;;;;;4991679;28;20234;-81
2022/01/25 08:02:10;;;;;;;66.70;33.50;;;4.20;99.90;;;;;;5003986;28;20231;-81
2022/01/25 08:04:38;;;;;;;64.33;32.73;;;4.20;99.90;;;;;;5000887;28;20242;-83
2022/01/25 08:07:05;;;;;;;65.73;33.93;;;4.20;99.90;;;;;;5004626;28;20229;-81
2022/01/25 08:09:32;;;;;;;69.17;34.10;;;4.20;99.90;;;;;;5014925;28;20236;-85
2022/01/25 08:11:59;;;;;;;68.80;33.77;;;4.20;99.90;;;;;;5009394;28;20251;-81
2022/01/25 08:14:25;;;;;;;67.73;34.33;;;4.20;99.90;;;;;;5008826;28;20743;-82
2022/01/25 08:16:53;;;;;;;64.07;33.50;;;4.20;99.90;;;;;;5016516;28;20317;-82
2022/01/25 08:19:21;;;;;;;65.93;33.23;;;4.20;99.90;;;;;;5015540;28;20324;-84
2022/01/25 08:21:50;;;;;;;62.23;32.80;;;4.30;99.90;;;;;;5007604;28;20247;-82
2022/01/25 08:24:19;;;;;;;65.17;33.20;;;4.30;99.90;;;;;;5004220;28;20710;-84
2022/01/25 08:26:46;;;;;;;69.53;33.67;;;4.30;99.90;;;;;;5006856;28;20236;-82
2022/01/25 08:29:13;;;;;;;66.27;32.40;;;4.30;99.90;;;;;;5015322;28;20299;-82
2022/01/25 08:31:41;;;;;;;69.30;33.43;;;4.30;99.90;;;;;;5017116;28;20306;-82
2022/01/25 08:34:11;;;;;;;64.70;32.93;;;4.40;99.90;;;;;;5009994;28;20243;-82
2022/01/25 08:36:38;;;;;;;67.57;32.80;;;4.40;99.90;;;;;;5026828;28;20315;-82
2022/01/25 08:39:08;;;;;;;65.87;33.33;;;4.40;99.90;;;;;;5019911;28;20242;-83
2022/01/25 08:41:35;;;;;;;62.73;32.90;;;4.40;99.90;;;;;;5009243;28;20320;-82
2022/01/25 08:44:01;;;;;;;63.87;33.27;;;4.50;99.90;;;;;;5017130;28;20230;-82
2022/01/25 08:46:28;;;;;;;66.03;33.63;;;4.50;99.90;;;;;;5009207;28;20310;-82
2022/01/25 08:48:55;;;;;;;67.53;33.67;;;4.50;99.90;;;;;;5008421;28;20261;-82
2022/01/25 08:51:22;;;;;;;66.10;32.53;;;4.50;99.90;;;;;;5009200;28;20264;-82
2022/01/25 08:53:49;;;;;;;72.20;32.97;;;4.50;99.90;;;;;;5005824;28;20320;-82
2022/01/25 08:56:17;;;;;;;64.10;32.37;;;4.50;99.90;;;;;;5006731;28;20860;-83
2022/01/25 08:58:44;;;;;;;64.93;32.83;;;4.50;99.90;;;;;;5007279;28;20233;-82
2022/01/25 09:01:10;;;;;;;65.60;31.90;;;4.50;99.90;;;;;;5006834;28;20238;-82
2022/01/25 09:03:37;;;;;;;64.90;32.83;;;4.60;99.90;;;;;;5004665;28;20609;-82
2022/01/25 09:06:04;;;;;;;65.50;30.33;;;4.60;99.90;;;;;;5005131;28;20221;-83
2022/01/25 09:08:32;;;;;;;62.53;32.47;;;4.60;99.90;;;;;;5006370;28;20232;-83
2022/01/25 09:11:01;;;;;;;65.70;32.73;;;4.60;99.90;;;;;;5008747;28;20241;-83
2022/01/25 09:13:30;;;;;;;60.30;31.20;;;4.60;99.90;;;;;;5006847;28;20302;-83
2022/01/25 09:15:58;;;;;;;61.80;32.13;;;4.60;99.90;;;;;;5003404;28;20648;-84
2022/01/25 09:18:25;;;;;;;60.33;32.50;;;4.60;99.90;;;;;;5002756;28;20319;-83
2022/01/25 09:20:52;;;;;;;61.80;30.73;;;4.60;99.90;;;;;;5008626;28;20835;-83
2022/01/25 09:23:20;;;;;;;60.57;31.80;;;4.60;99.90;;;;;;5007161;28;20224;-83
2022/01/25 09:25:48;;;;;;;59.60;30.67;;;4.70;99.90;;;;;;5004938;28;20337;-83
2022/01/25 09:28:15;;;;;;;60.43;30.53;;;4.70;99.90;;;;;;5003511;28;20382;-82
2022/01/25 09:30:44;;;;;;;55.67;27.83;;;4.70;99.90;;;;;;5000114;28;20831;-82
2022/01/25 09:33:11;;;;;;;59.47;30.60;;;4.70;99.90;;;;;;5002311;28;20284;-83
2022/01/25 09:35:38;;;;;;;60.07;30.07;;;4.80;99.90;;;;;;5005179;28;20254;-82
2022/01/25 09:38:05;;;;;;;57.23;29.73;;;4.80;99.90;;;;;;5005318;28;20226;-82
2022/01/25 09:40:32;;;;;;;55.50;29.17;;;4.80;99.90;;;;;;5007098;28;20319;-82
2022/01/25 09:43:00;;;;;;;58.10;30.47;;;4.80;99.90;;;;;;4992256;28;20236;-82
2022/01/25 09:45:29;;;;;;;55.13;29.63;;;4.90;99.90;;;;;;5002774;28;20238;-83
2022/01/25 09:47:57;;;;;;;56.50;28.40;;;4.90;99.90;;;;;;4996430;28;20233;-82
2022/01/25 09:50:24;;;;;;;56.50;29.40;;;4.90;99.90;;;;;;5007486;28;20249;-82
2022/01/25 09:52:52;;;;;;;52.17;27.17;;;5.00;99.90;;;;;;5010399;28;20225;-83
2022/01/25 09:55:21;;;;;;;55.93;29.13;;;5.00;99.90;;;;;;5003999;28;20715;-82
2022/01/25 09:57:48;;;;;;;49.77;28.33;;;5.00;99.90;;;;;;5007624;28;20312;-83
2022/01/25 10:00:19;;;;;;;56.77;29.37;;;5.00;99.90;;;;;;5001501;28;20242;-83
2022/01/25 10:02:56;;;;;;;58.33;30.00;;;5.00;99.90;;;;;;5003055;28;20626;-83
2022/01/25 10:05:29;;;;;;;58.00;29.50;;;5.00;99.90;;;;;;5003086;28;20221;-83
2022/01/25 10:07:59;;;;;;;57.27;28.20;;;5.00;99.90;;;;;;5005783;28;20606;-83
2022/01/25 10:10:27;;;;;;;52.70;27.27;;;5.00;99.90;;;;;;5003681;28;20829;-83
2022/01/25 10:12:56;;;;;;;51.33;26.07;;;5.00;99.90;;;;;;5007153;28;20233;-83
2022/01/25 10:15:27;;;;;;;51.40;26.70;;;5.10;99.90;;;;;;5004505;28;22495;-83
2022/01/25 10:17:54;;;;;;;50.57;27.60;;;5.10;99.90;;;;;;5008192;28;20222;-83
2022/01/25 10:20:32;;;;;;;49.80;26.67;;;5.20;99.90;;;;;;5008593;28;20652;-83
2022/01/25 10:23:01;;;;;;;52.43;26.70;;;5.20;99.90;;;;;;5009053;28;20234;-83
2022/01/25 10:25:37;;;;;;;50.63;26.53;;;5.20;99.90;;;;;;5008861;28;20228;-83
2022/01/25 10:28:11;;;;;;;47.17;25.17;;;5.30;99.90;;;;;;5029869;28;20714;-82
2022/01/25 10:30:42;;;;;;;46.53;25.23;;;5.30;99.90;;;;;;5010475;28;20234;-83
2022/01/25 10:33:26;;;;;;;45.23;24.00;;;5.30;99.90;;;;;;5018571;28;20252;-83
2022/01/25 10:35:56;;;;;;;44.60;23.50;;;5.30;99.90;;;;;;5005409;28;20218;-83
2022/01/25 10:38:27;;;;;;;46.13;24.60;;;5.40;99.90;;;;;;5024630;28;20272;-83
2022/01/25 10:41:00;;;;;;;44.80;24.17;;;5.40;99.90;;;;;;5015305;28;20226;-82
2022/01/25 10:43:28;;;;;;;46.27;23.87;;;5.40;99.90;;;;;;5009072;28;20245;-83
2022/01/25 10:46:11;;;;;;;46.67;24.77;;;5.40;99.90;;;;;;4999949;28;20889;-83
2022/01/25 10:48:39;;;;;;;46.93;24.03;;;5.40;99.90;;;;;;5002828;28;20239;-83
2022/01/25 10:51:09;;;;;;;43.97;23.53;;;5.40;99.90;;;;;;5005503;28;20666;-82
2022/01/25 10:53:38;;;;;;;45.07;23.70;;;5.40;99.90;;;;;;5008494;28;20771;-83
2022/01/25 10:56:05;;;;;;;41.13;23.47;;;5.40;99.90;;;;;;5010023;28;20250;-83
2022/01/25 10:58:38;;;;;;;42.83;23.87;;;5.40;99.90;;;;;;5002905;28;20234;-83
2022/01/25 11:01:05;;;;;;;47.93;24.60;;;5.40;99.90;;;;;;5008934;28;20704;-82
2022/01/25 11:03:34;;;;;;;43.73;23.77;;;5.40;99.90;;;;;;5000522;28;20250;-83
2022/01/25 11:06:12;;;;;;;45.03;24.10;;;5.40;99.90;;;;;;5006288;28;20237;-83
2022/01/25 11:08:40;;;;;;;45.63;23.80;;;5.40;99.90;;;;;;5009211;28;20253;-83
2022/01/25 11:11:10;;;;;;;43.30;23.17;;;5.50;99.90;;;;;;5007077;28;20757;-83
2022/01/25 11:13:40;;;;;;;44.70;24.67;;;5.50;99.90;;;;;;5008183;28;20239;-83
2022/01/25 11:16:10;;;;;;;47.80;25.23;;;5.50;99.90;;;;;;5005427;28;20732;-83
2022/01/25 11:18:38;;;;;;;46.07;23.97;;;5.50;99.90;;;;;;5005328;28;20234;-83
2022/01/25 11:21:07;;;;;;;42.90;23.97;;;5.50;99.90;;;;;;5005194;28;20619;-82
2022/01/25 11:23:37;;;;;;;48.20;24.50;;;5.50;99.90;;;;;;5012383;28;20241;-83
2022/01/25 11:26:07;;;;;;;46.97;24.80;;;5.50;99.90;;;;;;5006751;28;20281;-83
2022/01/25 11:28:35;;;;;;;45.70;24.27;;;5.50;99.90;;;;;;5010559;28;20331;-83
2022/01/25 11:31:07;;;;;;;44.63;23.13;;;5.50;99.90;;;;;;5006631;28;20258;-83
2022/01/25 11:33:35;;;;;;;41.73;23.83;;;5.60;99.90;;;;;;5006443;28;20255;-83
2022/01/25 11:36:07;;;;;;;44.03;25.13;;;5.50;99.90;;;;;;5013443;28;20241;-84
2022/01/25 11:38:44;;;;;;;42.73;23.40;;;5.50;99.90;;;;;;5009746;28;20257;-83
2022/01/25 11:41:13;;;;;;;42.97;23.57;;;5.60;99.90;;;;;;5006838;28;20239;-83
2022/01/25 11:43:43;;;;;;;43.87;23.80;;;5.60;99.90;;;;;;5007377;28;20289;-82
2022/01/25 11:46:10;;;;;;;40.47;22.73;;;5.50;99.90;;;;;;5018418;28;20701;-83
2022/01/25 11:48:41;;;;;;;39.70;21.70;;;5.60;99.90;;;;;;5002507;28;20349;-82
2022/01/25 11:51:14;;;;;;;41.87;22.73;;;5.60;99.90;;;;;;5004610;28;20231;-83
2022/01/25 11:53:46;;;;;;;36.83;20.57;;;5.60;99.90;;;;;;5008684;28;20708;-83
2022/01/25 11:56:13;;;;;;;42.40;22.37;;;5.60;99.90;;;;;;5010725;28;20228;-82
2022/01/25 11:58:41;;;;;;;41.53;21.80;;;5.60;99.90;;;;;;5008798;28;20759;-83
2022/01/25 12:01:18;;;;;;;41.00;21.63;;;5.70;99.90;;;;;;5003828;28;20219;-83
2022/01/25 12:03:46;;;;;;;38.60;21.13;;;5.70;99.90;;;;;;5014154;28;20239;-83
2022/01/25 12:06:19;;;;;;;40.07;20.90;;;5.70;99.90;;;;;;5006903;28;21003;-83
2022/01/25 12:09:07;;;;;;;39.43;20.97;;;5.70;99.90;;;;;;5004516;28;20795;-84
2022/01/25 12:11:42;;;;;;;38.47;20.07;;;5.70;99.90;;;;;;5006469;28;20342;-83
2022/01/25 12:14:28;;;;;;;36.70;19.37;;;5.70;99.90;;;;;;5006656;28;20733;-83
2022/01/25 12:16:58;;;;;;;38.43;20.77;;;5.70;99.90;;;;;;5006776;28;20227;-82
2022/01/25 12:19:37;;;;;;;35.70;21.07;;;5.70;99.90;;;;;;5009266;28;20250;-83
2022/01/25 12:22:07;;;;;;;34.63;18.50;;;5.80;99.90;;;;;;5006095;28;20226;-82
2022/01/25 12:24:50;;;;;;;36.60;20.30;;;5.80;99.90;;;;;;5003943;28;20865;-83
2022/01/25 12:27:21;;;;;;;33.43;17.67;;;5.80;99.90;;;;;;4998167;28;20731;-82
2022/01/25 12:29:59;;;;;;;34.53;18.57;;;5.80;99.90;;;;;;5006616;28;20310;-80
2022/01/25 12:32:29;;;;;;;34.50;18.67;;;5.90;99.90;;;;;;5002539;28;20281;-81
2022/01/25 12:35:13;;;;;;;36.00;19.43;;;5.90;99.90;;;;;;5006068;28;20234;-81
2022/01/25 12:40:42;;;;;;;37.33;19.33;;;5.90;99.90;;;;;;4994197;28;20239;-81
2022/01/25 12:43:16;;;;;;;33.73;18.73;;;5.90;99.90;;;;;;4989289;28;20234;-79
2022/01/25 12:45:46;;;;;;;35.83;19.77;;;5.90;99.90;;;;;;5006229;22;20766;-81
2022/01/25 12:48:15;;;;;;;35.80;19.57;;;5.90;99.90;;;;;;5022811;28;20228;-81
2022/01/25 12:50:45;;;;;;;33.30;19.33;;;5.90;99.90;;;;;;4993968;23;20238;-79
2022/01/25 12:53:14;;;;;;;37.47;20.87;;;5.90;99.90;;;;;;5061575;28;20360;-82
2022/01/25 12:55:44;;;;;;;41.20;20.80;;;5.90;99.90;;;;;;5045639;28;20320;-83
2022/01/25 12:58:11;;;;;;;41.57;22.97;;;5.90;99.90;;;;;;5032216;28;20230;-81
2022/01/25 13:00:42;;;;;;;42.83;22.57;;;6.00;99.90;;;;;;5043454;28;20240;-83
2022/01/25 13:03:20;;;;;;;41.10;23.23;;;6.00;99.90;;;;;;5031836;28;20313;-83
2022/01/25 13:05:49;;;;;;;37.77;20.83;;;6.00;99.90;;;;;;4986167;23;20237;-78
2022/01/25 13:08:19;;;;;;;41.83;22.03;;;6.00;99.90;;;;;;4963564;28;20226;-80
2022/01/25 13:10:48;;;;;;;35.10;19.77;;;6.00;99.90;;;;;;4946180;23;20242;-80
2022/01/25 13:13:24;;;;;;;33.57;18.80;;;6.00;99.90;;;;;;4935825;28;20231;-80
2022/01/25 13:15:56;;;;;;;33.13;18.63;;;6.00;99.90;;;;;;4939894;29;20230;-79
2022/01/25 13:18:26;;;;;;;30.70;17.20;;;6.00;99.90;;;;;;4942993;23;20220;-81
2022/01/25 13:21:10;;;;;;;31.93;17.77;;;5.90;99.90;;;;;;4951179;28;20253;-83
2022/01/25 13:23:51;;;;;;;31.87;17.27;;;5.90;99.90;;;;;;4947270;28;20274;-81
2022/01/25 13:26:21;;;;;;;28.87;16.97;;;5.90;99.90;;;;;;4946043;28;20237;-82
2022/01/25 13:28:56;;;;;;;28.67;17.20;;;5.90;99.90;;;;;;4932159;28;20249;-82
2022/01/25 13:31:24;;;;;;;28.27;16.47;;;5.90;99.90;;;;;;4949799;28;20760;-83
2022/01/25 13:33:53;;;;;;;31.73;16.07;;;5.90;99.90;;;;;;4935487;28;20321;-80
2022/01/25 13:36:22;;;;;;;31.87;17.13;;;5.90;99.90;;;;;;4925491;28;20343;-81
2022/01/25 13:38:49;;;;;;;27.33;15.63;;;5.90;99.90;;;;;;4937391;23;20228;-83
2022/01/25 13:41:25;;;;;;;27.50;15.10;;;5.90;99.90;;;;;;4970891;28;20233;-82
2022/01/25 13:46:41;;;;;;;29.47;15.63;;;5.90;99.90;;;;;;5054859;23;20312;-80
2022/01/25 13:49:11;;;;;;;30.07;16.20;;;5.90;99.90;;;;;;5032500;28;20225;-81
2022/01/25 13:51:42;;;;;;;27.97;16.13;;;5.90;99.90;;;;;;5020641;28;21057;-83
2022/01/25 13:54:13;;;;;;;28.03;15.67;;;5.80;99.90;;;;;;5019264;28;20354;-83
2022/01/25 13:56:42;;;;;;;24.27;13.83;;;5.80;99.90;;;;;;5025127;28;21041;-82
2022/01/25 13:59:09;;;;;;;26.90;14.60;;;5.80;99.90;;;;;;5030914;28;20308;-80
2022/01/25 14:01:40;;;;;;;24.90;14.53;;;5.80;99.90;;;;;;5021213;28;20254;-81
2022/01/25 14:04:10;;;;;;;24.57;13.70;;;5.80;99.90;;;;;;5041038;28;20259;-80
2022/01/25 14:06:41;;;;;;;25.80;14.43;;;5.80;99.90;;;;;;5049218;22;20287;-80
2022/01/25 14:09:12;;;;;;;25.10;14.27;;;5.80;99.90;;;;;;5029843;28;20657;-83